createdAt,value
2018-11-05T00:00:25.387Z,9.50
2018-11-05T00:02:53.029Z,9.50
2018-11-05T00:05:20.545Z,9.13
2018-11-05T00:07:48.164Z,11.30
2018-11-05T00:10:15.688Z,9.00
2018-11-05T00:12:43.274Z,10.20
2018-11-05T00:15:10.976Z,10.13
2018-11-05T00:17:38.513Z,10.47
2018-11-05T00:20:06.082Z,9.83
2018-11-05T00:22:33.664Z,9.87
2018-11-05T00:25:01.198Z,10.73
2018-11-05T00:27:28.861Z,10.13
2018-11-05T00:29:56.367Z,10.93
2018-11-05T00:32:23.930Z,9.97
2018-11-05T00:34:51.497Z,9.77
2018-11-05T00:37:19.239Z,9.30
2018-11-05T00:39:46.780Z,10.07
2018-11-05T00:42:14.324Z,10.07
2018-11-05T00:44:42.004Z,9.03
2018-11-05T00:47:09.611Z,9.40
2018-11-05T00:49:37.228Z,10.17
2018-11-05T00:52:04.789Z,9.67
2018-11-05T00:54:32.326Z,10.67
2018-11-05T00:56:59.884Z,9.03
2018-11-05T00:59:27.477Z,9.57
2018-11-05T01:01:55.089Z,10.73
2018-11-05T01:04:22.625Z,10.10
2018-11-05T01:06:50.211Z,9.33
2018-11-05T01:09:17.781Z,9.70
2018-11-05T01:11:45.296Z,9.50
2018-11-05T01:14:12.873Z,10.57
2018-11-05T01:16:40.468Z,11.13
2018-11-05T01:19:08.057Z,12.67
2018-11-05T01:21:35.607Z,9.63
2018-11-05T01:24:03.152Z,11.67
2018-11-05T01:26:30.719Z,9.37
2018-11-05T01:28:58.269Z,9.70
2018-11-05T01:31:25.864Z,10.00
2018-11-05T01:33:53.416Z,10.40
2018-11-05T01:36:21.129Z,10.13
2018-11-05T01:38:48.831Z,9.77
2018-11-05T01:41:16.412Z,9.63
2018-11-05T01:43:44.050Z,10.10
2018-11-05T01:46:11.587Z,9.27
2018-11-05T01:48:39.121Z,9.17
2018-11-05T01:51:06.735Z,11.40
2018-11-05T01:53:34.313Z,10.00
2018-11-05T01:56:01.829Z,9.90
2018-11-05T01:58:29.403Z,9.97
2018-11-05T02:00:56.911Z,9.83
2018-11-05T02:03:24.472Z,10.43
2018-11-05T02:05:52.053Z,10.00
2018-11-05T02:08:19.590Z,10.00
2018-11-05T02:10:47.162Z,9.63
2018-11-05T02:13:14.923Z,10.73
2018-11-05T02:15:42.471Z,9.87
2018-11-05T02:18:09.995Z,9.67
2018-11-05T02:20:37.589Z,10.17
2018-11-05T02:23:05.143Z,9.80
2018-11-05T02:25:32.725Z,9.20
2018-11-05T02:28:00.304Z,9.77
2018-11-05T02:30:27.881Z,11.00
2018-11-05T02:32:55.428Z,9.63
2018-11-05T02:35:22.935Z,9.87
2018-11-05T02:37:50.498Z,10.13
2018-11-05T02:40:18.086Z,9.03
2018-11-05T02:42:45.593Z,9.93
2018-11-05T02:45:13.347Z,9.43
2018-11-05T02:47:40.901Z,9.30
2018-11-05T02:50:08.559Z,9.43
2018-11-05T02:52:36.100Z,9.73
2018-11-05T02:55:03.610Z,10.20
2018-11-05T02:57:31.165Z,10.57
2018-11-05T02:59:58.685Z,9.23
2018-11-05T03:02:26.297Z,9.43
2018-11-05T03:04:53.818Z,10.80
2018-11-05T03:07:21.473Z,9.03
2018-11-05T03:09:49.000Z,9.20
2018-11-05T03:12:16.550Z,10.83
2018-11-05T03:14:44.138Z,10.77
2018-11-05T03:17:12.141Z,11.80
2018-11-05T03:19:39.677Z,10.40
2018-11-05T03:22:07.331Z,10.97
2018-11-05T03:24:34.887Z,11.43
2018-11-05T03:27:02.458Z,13.53
2018-11-05T03:29:30.054Z,13.30
2018-11-05T03:31:57.585Z,12.27
2018-11-05T03:34:25.180Z,11.23
2018-11-05T03:36:52.745Z,10.63
2018-11-05T03:39:20.285Z,11.70
2018-11-05T03:41:47.852Z,10.37
2018-11-05T03:44:15.417Z,10.43
2018-11-05T03:46:42.973Z,10.70
2018-11-05T03:49:10.537Z,8.97
2018-11-05T03:51:38.061Z,9.17
2018-11-05T03:54:05.639Z,10.43
2018-11-05T03:56:33.333Z,8.80
2018-11-05T03:59:00.857Z,8.40
2018-11-05T04:01:28.489Z,9.60
2018-11-05T04:03:56.033Z,10.83
2018-11-05T04:06:23.533Z,9.83
2018-11-05T04:08:51.071Z,10.73
2018-11-05T04:11:18.602Z,9.80
2018-11-05T04:13:46.201Z,11.97
2018-11-05T04:16:13.888Z,11.53
2018-11-05T04:18:41.341Z,11.40
2018-11-05T04:21:08.920Z,10.97
2018-11-05T04:23:36.494Z,11.43
2018-11-05T04:26:04.029Z,11.97
2018-11-05T04:28:31.565Z,9.50
2018-11-05T04:30:59.156Z,10.83
2018-11-05T04:33:26.703Z,10.93
2018-11-05T04:35:54.288Z,11.00
2018-11-05T04:38:21.814Z,12.20
2018-11-05T04:40:49.334Z,10.80
2018-11-05T04:43:16.914Z,11.30
2018-11-05T04:45:44.455Z,11.23
2018-11-05T04:48:11.970Z,10.97
2018-11-05T04:50:39.528Z,11.50
2018-11-05T04:53:07.107Z,9.93
2018-11-05T04:55:34.623Z,10.80
2018-11-05T04:58:02.169Z,10.57
2018-11-05T05:00:29.722Z,10.40
2018-11-05T05:02:57.277Z,10.47
2018-11-05T05:05:24.791Z,11.90
2018-11-05T05:07:52.422Z,9.73
2018-11-05T05:10:19.988Z,9.67
2018-11-05T05:12:47.521Z,10.33
2018-11-05T05:15:15.107Z,11.60
2018-11-05T05:17:42.640Z,9.90
2018-11-05T05:20:10.204Z,10.70
2018-11-05T05:22:37.858Z,12.13
2018-11-05T05:25:05.337Z,11.57
2018-11-05T05:27:33.020Z,10.50
2018-11-05T05:30:00.531Z,10.43
2018-11-05T05:32:28.086Z,11.10
2018-11-05T05:34:55.686Z,9.97
2018-11-05T05:37:23.255Z,10.40
2018-11-05T05:39:50.851Z,10.00
2018-11-05T05:42:18.382Z,10.87
2018-11-05T05:44:45.934Z,9.97
2018-11-05T05:47:13.481Z,9.03
2018-11-05T05:49:40.979Z,9.77
2018-11-05T05:52:08.509Z,10.73
2018-11-05T05:54:36.089Z,9.57
2018-11-05T05:57:03.718Z,10.10
2018-11-05T05:59:31.260Z,9.73
2018-11-05T06:01:58.973Z,9.07
2018-11-05T06:04:26.489Z,10.63
2018-11-05T06:06:54.027Z,9.33
2018-11-05T06:09:21.613Z,10.80
2018-11-05T06:11:49.118Z,9.93
2018-11-05T06:14:16.707Z,9.93
2018-11-05T06:16:44.275Z,9.37
2018-11-05T06:19:12.381Z,8.93
2018-11-05T06:21:39.916Z,9.23
2018-11-05T06:24:07.446Z,9.33
2018-11-05T06:26:35.004Z,9.03
2018-11-05T06:29:02.561Z,10.23
2018-11-05T06:31:30.067Z,9.50
2018-11-05T06:33:57.637Z,9.60
2018-11-05T06:36:25.152Z,8.83
2018-11-05T06:38:52.702Z,14.03
2018-11-05T06:41:20.474Z,9.67
2018-11-05T06:43:47.990Z,9.23
2018-11-05T06:46:15.643Z,8.97
2018-11-05T06:48:43.213Z,8.80
2018-11-05T06:51:10.807Z,9.33
2018-11-05T06:53:38.350Z,11.03
2018-11-05T06:56:06.330Z,8.17
2018-11-05T06:58:33.927Z,8.20
2018-11-05T07:01:01.490Z,8.83
2018-11-05T07:03:29.013Z,10.37
2018-11-05T07:05:56.712Z,10.23
2018-11-05T07:08:24.185Z,10.90
2018-11-05T07:10:51.739Z,10.03
2018-11-05T07:13:19.304Z,12.03
2018-11-05T07:15:47.004Z,10.60
2018-11-05T07:18:14.594Z,10.60
2018-11-05T07:20:42.204Z,11.43
2018-11-05T07:23:09.785Z,12.00
2018-11-05T07:25:37.320Z,11.13
2018-11-05T07:28:04.906Z,13.20
2018-11-05T07:30:32.710Z,14.77
2018-11-05T07:33:00.250Z,10.17
2018-11-05T07:35:27.927Z,10.23
2018-11-05T07:37:55.508Z,8.50
2018-11-05T07:40:23.036Z,8.83
2018-11-05T07:42:50.697Z,8.40
2018-11-05T07:45:18.265Z,8.93
2018-11-05T07:47:45.815Z,8.37
2018-11-05T07:50:13.406Z,8.83
2018-11-05T07:52:40.918Z,9.33
2018-11-05T07:55:08.453Z,10.00
2018-11-05T07:57:36.011Z,8.73
2018-11-05T08:00:03.722Z,8.53
2018-11-05T08:02:31.297Z,8.30
2018-11-05T08:04:58.936Z,9.70
2018-11-05T08:07:26.505Z,8.50
2018-11-05T08:09:54.040Z,9.30
2018-11-05T08:12:21.628Z,9.77
2018-11-05T08:14:49.391Z,10.27
2018-11-05T08:17:16.949Z,9.73
2018-11-05T08:19:44.590Z,9.77
2018-11-05T08:22:12.183Z,9.20
2018-11-05T08:24:39.764Z,9.67
2018-11-05T08:27:07.287Z,10.67
2018-11-05T08:29:34.839Z,10.13
2018-11-05T08:32:02.385Z,9.97
2018-11-05T08:34:29.958Z,10.03
2018-11-05T08:36:58.882Z,9.30
2018-11-05T08:39:26.448Z,10.50
2018-11-05T08:41:54.025Z,10.03
2018-11-05T08:44:21.566Z,9.93
2018-11-05T08:46:49.205Z,9.93
2018-11-05T08:49:16.683Z,10.17
2018-11-05T08:51:44.624Z,12.30
2018-11-05T08:54:11.947Z,10.17
2018-11-05T08:56:39.422Z,9.57
2018-11-05T08:59:06.968Z,12.23
2018-11-05T09:01:34.576Z,10.07
2018-11-05T09:04:02.254Z,11.03
2018-11-05T09:06:29.826Z,10.47
2018-11-05T09:08:57.372Z,10.00
2018-11-05T09:11:25.365Z,10.77
2018-11-05T09:13:52.690Z,10.00
2018-11-05T09:16:20.352Z,11.63
2018-11-05T09:18:47.983Z,10.83
2018-11-05T09:21:16.372Z,10.67
2018-11-05T09:23:44.000Z,10.97
2018-11-05T09:26:11.535Z,10.07
2018-11-05T09:28:39.058Z,10.50
2018-11-05T09:31:06.650Z,10.20
2018-11-05T09:33:34.292Z,10.37
2018-11-05T09:36:01.835Z,10.60
2018-11-05T09:38:29.390Z,10.87
2018-11-05T09:40:56.922Z,10.70
2018-11-05T09:43:24.552Z,10.83
2018-11-05T09:45:52.172Z,11.43
2018-11-05T09:48:20.067Z,11.00
2018-11-05T09:50:47.873Z,15.07
2018-11-05T09:53:15.412Z,11.27
2018-11-05T09:55:42.954Z,11.10
2018-11-05T09:58:10.520Z,12.80
2018-11-05T10:00:38.077Z,11.60
2018-11-05T10:03:05.849Z,12.43
2018-11-05T10:05:33.352Z,11.93
2018-11-05T10:08:00.893Z,11.73
2018-11-05T10:10:28.916Z,12.47
2018-11-05T10:13:04.629Z,13.13
2018-11-05T10:15:32.442Z,12.07
2018-11-05T10:18:00.027Z,12.43
2018-11-05T10:20:27.589Z,14.00
2018-11-05T10:22:55.182Z,13.27
2018-11-05T10:25:22.804Z,14.90
2018-11-05T10:27:50.379Z,12.67
2018-11-05T10:30:18.089Z,14.10
2018-11-05T10:32:45.847Z,12.53
2018-11-05T10:35:13.429Z,13.97
2018-11-05T10:37:41.027Z,14.57
2018-11-05T10:40:10.293Z,17.67
2018-11-05T10:42:38.017Z,15.33
2018-11-05T10:45:05.720Z,13.80
2018-11-05T10:47:33.474Z,13.60
2018-11-05T10:50:01.295Z,17.23
2018-11-05T10:52:28.989Z,13.97
2018-11-05T10:54:56.473Z,17.37
2018-11-05T10:57:24.019Z,12.53
2018-11-05T10:59:51.550Z,14.53
2018-11-05T11:02:19.170Z,13.20
2018-11-05T11:04:46.782Z,15.77
2018-11-05T11:07:14.300Z,16.83
2018-11-05T11:09:42.124Z,14.60
2018-11-05T11:12:09.604Z,12.67
2018-11-05T11:14:37.185Z,14.27
2018-11-05T11:17:04.873Z,14.60
2018-11-05T11:19:32.395Z,13.73
2018-11-05T11:22:00.038Z,15.77
2018-11-05T11:24:27.592Z,13.97
2018-11-05T11:26:55.131Z,13.07
2018-11-05T11:29:22.854Z,14.50
2018-11-05T11:31:50.269Z,14.57
2018-11-05T11:34:17.839Z,12.07
2018-11-05T11:36:45.820Z,13.30
2018-11-05T11:39:13.386Z,19.07
2018-11-05T11:41:41.186Z,22.07
2018-11-05T11:44:08.746Z,16.40
2018-11-05T11:46:36.340Z,11.33
2018-11-05T11:49:03.925Z,12.80
2018-11-05T11:51:31.514Z,11.23
2018-11-05T11:53:59.031Z,13.83
2018-11-05T11:56:26.771Z,14.33
2018-11-05T11:58:54.377Z,12.00
2018-11-05T12:01:22.023Z,12.03
2018-11-05T12:03:49.775Z,19.00
2018-11-05T12:06:17.331Z,11.87
2018-11-05T12:08:44.877Z,11.97
2018-11-05T12:11:12.466Z,12.60
2018-11-05T12:13:39.988Z,14.27
2018-11-05T12:16:07.671Z,11.43
2018-11-05T12:18:35.292Z,13.23
2018-11-05T12:21:02.994Z,14.27
2018-11-05T12:23:30.514Z,11.70
2018-11-05T12:25:58.143Z,12.17
2018-11-05T12:28:25.765Z,11.77
2018-11-05T12:30:53.378Z,13.03
2018-11-05T12:33:20.948Z,12.47
2018-11-05T12:35:48.532Z,11.73
2018-11-05T12:38:16.110Z,12.37
2018-11-05T12:40:43.692Z,12.70
2018-11-05T12:43:11.359Z,10.67
2018-11-05T12:45:39.038Z,11.27
2018-11-05T12:48:06.608Z,10.57
2018-11-05T12:50:34.365Z,11.47
2018-11-05T12:53:02.059Z,11.53
2018-11-05T12:55:29.868Z,14.10
2018-11-05T12:57:57.406Z,13.63
2018-11-05T13:00:24.992Z,13.03
2018-11-05T13:02:52.565Z,12.57
2018-11-05T13:05:20.326Z,11.07
2018-11-05T13:07:47.919Z,14.37
2018-11-05T13:10:15.517Z,9.87
2018-11-05T13:12:43.105Z,13.37
2018-11-05T13:15:10.799Z,12.87
2018-11-05T13:17:38.601Z,11.10
2018-11-05T13:20:06.312Z,11.87
2018-11-05T13:22:34.029Z,12.37
2018-11-05T13:25:01.818Z,12.80
2018-11-05T13:27:29.352Z,9.53
2018-11-05T13:29:57.089Z,11.07
2018-11-05T13:32:24.768Z,12.57
2018-11-05T13:34:52.289Z,14.47
2018-11-05T13:37:20.215Z,17.67
2018-11-05T13:39:47.450Z,10.77
2018-11-05T13:42:15.012Z,12.80
2018-11-05T13:44:42.728Z,10.93
2018-11-05T13:47:10.975Z,10.00
2018-11-05T14:55:46.525Z,16.37
2018-11-05T14:58:14.072Z,15.43
2018-11-05T15:00:41.730Z,15.77
2018-11-05T15:03:09.453Z,15.10
2018-11-05T15:05:37.131Z,14.47
2018-11-05T15:08:04.678Z,14.53
2018-11-05T15:10:32.573Z,13.07
2018-11-05T15:13:00.959Z,20.23
2018-11-05T15:15:28.959Z,14.93
2018-11-05T15:17:56.755Z,13.57
2018-11-05T15:20:24.572Z,12.97
2018-11-05T15:22:52.287Z,14.10
2018-11-05T15:25:19.978Z,12.83
2018-11-05T15:27:47.611Z,13.53
2018-11-05T15:30:15.224Z,14.47
2018-11-05T15:32:43.340Z,11.87
2018-11-05T15:35:11.078Z,12.23
2018-11-05T15:37:38.672Z,12.83
2018-11-05T15:40:06.279Z,12.30
2018-11-05T15:42:33.860Z,13.60
2018-11-05T15:45:01.401Z,13.27
2018-11-05T15:47:29.008Z,12.43
2018-11-05T15:49:56.560Z,12.70
2018-11-05T15:52:24.227Z,12.87
2018-11-05T15:54:51.865Z,12.07
2018-11-05T15:57:19.667Z,12.00
2018-11-05T15:59:47.417Z,11.90
2018-11-05T16:02:14.974Z,10.60
2018-11-05T16:04:42.685Z,10.67
2018-11-05T16:07:10.269Z,11.50
2018-11-05T16:09:37.807Z,10.23
2018-11-05T16:12:05.357Z,12.83
2018-11-05T16:14:33.101Z,11.00
2018-11-05T16:17:00.884Z,11.60
2018-11-05T16:19:28.571Z,10.00
2018-11-05T16:21:56.099Z,10.17
2018-11-05T16:24:23.744Z,12.27
2018-11-05T16:26:51.265Z,14.77
2018-11-05T16:29:18.859Z,11.27
2018-11-05T16:31:46.372Z,9.87
2018-11-05T16:34:13.968Z,13.40
2018-11-05T16:36:41.731Z,11.80
2018-11-05T16:39:09.310Z,12.47
2018-11-05T16:41:36.872Z,11.90
2018-11-05T16:44:04.428Z,9.60
2018-11-05T16:46:32.006Z,10.33
2018-11-05T16:48:59.828Z,10.20
2018-11-05T16:51:27.655Z,9.87
2018-11-05T16:53:55.391Z,10.40
2018-11-05T16:56:22.935Z,10.80
2018-11-05T16:58:50.515Z,10.73
2018-11-05T17:01:18.274Z,12.00
2018-11-05T17:03:45.746Z,10.37
2018-11-05T17:06:13.373Z,11.87
2018-11-05T17:08:40.954Z,12.83
2018-11-05T17:11:08.526Z,15.13
2018-11-05T17:13:36.195Z,14.03
2018-11-05T17:16:03.794Z,12.03
2018-11-05T17:18:31.438Z,13.13
2018-11-05T17:20:59.105Z,12.77
2018-11-05T17:23:26.638Z,13.47
2018-11-05T17:25:54.369Z,12.87
2018-11-05T17:28:21.962Z,12.70
2018-11-05T17:30:49.667Z,16.33
2018-11-05T17:33:17.363Z,19.93
2018-11-05T17:35:45.254Z,18.73
2018-11-05T17:38:12.954Z,17.70
2018-11-05T17:40:40.636Z,14.57
2018-11-05T17:43:08.466Z,17.03
2018-11-05T17:45:36.165Z,17.43
2018-11-05T17:48:03.853Z,15.33
2018-11-05T17:50:31.413Z,14.77
2018-11-05T17:52:59.085Z,15.17
2018-11-05T17:55:26.659Z,18.67
2018-11-05T17:57:54.331Z,15.53
2018-11-05T18:00:21.898Z,14.17
2018-11-05T18:02:49.430Z,13.57
2018-11-05T18:05:17.212Z,17.07
2018-11-05T18:07:44.893Z,14.47
2018-11-05T18:10:12.590Z,20.83
2018-11-05T18:12:40.107Z,16.93
2018-11-05T18:15:07.953Z,18.27
2018-11-05T18:17:35.582Z,14.83
2018-11-05T18:20:03.295Z,16.53
2018-11-05T18:22:31.009Z,16.50
2018-11-05T18:24:59.561Z,19.33
2018-11-05T18:27:27.582Z,20.50
2018-11-05T18:29:55.339Z,17.93
2018-11-05T18:32:23.008Z,14.97
2018-11-05T18:34:50.740Z,16.20
2018-11-05T18:37:18.402Z,16.83
2018-11-05T20:08:48.121Z,23.80
2018-11-05T20:11:16.843Z,23.73
2018-11-05T20:13:45.802Z,21.27
2018-11-05T20:16:15.195Z,21.30
2018-11-05T20:18:44.396Z,19.93
2018-11-05T20:21:12.154Z,21.50
2018-11-05T20:23:44.963Z,19.23
2018-11-05T20:26:14.285Z,20.50
2018-11-05T20:28:44.203Z,19.80
2018-11-05T20:31:12.652Z,21.87
2018-11-05T20:33:42.164Z,19.70
2018-11-05T20:36:10.841Z,20.97
2018-11-05T20:38:41.632Z,18.97
2018-11-05T20:41:10.769Z,18.77
2018-11-05T20:43:44.848Z,16.80
2018-11-05T20:46:13.999Z,17.83
2018-11-05T20:48:43.863Z,19.10
2018-11-05T20:51:14.266Z,24.97
2018-11-05T20:53:43.717Z,21.47
2018-11-05T20:56:13.036Z,23.40
2018-11-05T20:58:41.915Z,20.67
2018-11-05T21:01:11.280Z,22.23
2018-11-05T21:03:43.452Z,23.73
2018-11-05T21:06:12.627Z,19.03
2018-11-05T21:08:40.326Z,21.53
2018-11-05T21:11:08.267Z,22.70
2018-11-05T21:13:37.571Z,19.27
2018-11-05T21:16:06.472Z,22.53
2018-11-05T21:18:36.293Z,26.20
2018-11-05T21:21:05.935Z,23.70
2018-11-05T21:23:34.132Z,21.63
2018-11-05T21:28:34.332Z,19.87
2018-11-05T21:31:01.920Z,24.50
2018-11-05T21:36:05.307Z,21.77
2018-11-05T21:38:33.789Z,18.07
2018-11-05T21:41:01.400Z,16.47
2018-11-05T21:43:28.938Z,18.47
2018-11-05T21:45:56.540Z,18.73
2018-11-05T21:51:04.010Z,22.87
2018-11-05T21:53:31.573Z,18.60
2018-11-05T21:55:59.120Z,19.07
2018-11-05T21:58:26.787Z,18.47
2018-11-05T22:01:11.875Z,16.67
2018-11-05T22:03:58.826Z,22.60
2018-11-05T22:06:26.992Z,26.03
2018-11-05T22:08:54.773Z,18.37
2018-11-05T22:11:22.415Z,20.67
2018-11-05T22:13:56.334Z,19.13
2018-11-05T22:16:24.037Z,18.40
2018-11-05T22:18:51.732Z,19.83
2018-11-05T22:21:19.483Z,17.70
2018-11-05T22:23:47.232Z,19.67
2018-11-05T22:26:14.956Z,16.23
2018-11-05T22:28:42.541Z,20.97
2018-11-05T22:31:10.127Z,23.83
2018-11-05T22:33:37.798Z,18.77
2018-11-05T22:36:05.626Z,15.90
2018-11-05T22:38:33.545Z,22.53
2018-11-05T22:41:01.447Z,18.13
2018-11-05T22:43:29.333Z,16.27
2018-11-05T22:45:58.752Z,18.77
2018-11-05T22:48:26.938Z,17.10
2018-11-05T22:50:54.626Z,15.70
2018-11-05T22:53:23.297Z,18.40
2018-11-05T22:55:50.900Z,22.40
2018-11-05T22:58:18.491Z,17.23
2018-11-05T23:00:46.127Z,18.53
2018-11-05T23:03:13.714Z,16.43
2018-11-05T23:05:41.398Z,18.27
2018-11-05T23:08:08.952Z,15.00
2018-11-05T23:10:36.813Z,14.90
2018-11-05T23:13:04.410Z,16.17
2018-11-05T23:15:31.969Z,17.20
2018-11-05T23:17:59.563Z,14.30
2018-11-05T23:20:27.155Z,16.53
2018-11-05T23:22:54.752Z,15.13
2018-11-05T23:25:22.348Z,21.07
2018-11-05T23:27:50.298Z,14.93
2018-11-05T23:30:22.595Z,14.93
2018-11-05T23:32:50.278Z,16.03
2018-11-05T23:35:18.261Z,17.10
2018-11-05T23:37:45.873Z,16.03
2018-11-05T23:40:13.686Z,14.03
2018-11-05T23:42:41.315Z,16.77
2018-11-05T23:45:09.341Z,16.27
2018-11-05T23:47:37.012Z,13.97
2018-11-05T23:50:04.804Z,15.00
2018-11-05T23:52:34.694Z,13.40
2018-11-05T23:55:02.598Z,16.03
2018-11-05T23:57:30.221Z,14.47
2018-11-05T23:59:58.001Z,17.20
